HAZ1135 ZUUU-ZSNJ
Flight info
| Callsign | HAZ1135 |
|---|---|
| Flight time | N/A |
| Altitude | 37100 |
| Route | UBRAB9W UBRAB B213 WHA R343 HFE HFE71F |
| Aircraft | B77W/H-SDE1E2E3FGHIJ2J3J4J5M1RWXY/LB1D1 |
Departure
| Time | N/A |
|---|---|
| Airport | Chengdu Shuangliu International Airport (ZUUU) |
Arrival
| Time | 2026-04-25 03:53 |
|---|---|
| Airport | Nanjing Lukou International Airport (ZSNJ) |
| Time | Latitude | Longitude | Altitude | Speed | Heading |
|---|---|---|---|---|---|
| 2026-04-25 03:25 | 31.33271 | 115.91357 | 37219 ft | 507 kts | 67° |
| 2026-04-25 03:26 | 31.35782 | 115.99039 | 37223 ft | 509 kts | 68° |
| 2026-04-25 03:26 | 31.38305 | 116.06780 | 37213 ft | 508 kts | 67° |
| 2026-04-25 03:27 | 31.40829 | 116.14546 | 37213 ft | 510 kts | 67° |
| 2026-04-25 03:27 | 31.43347 | 116.22317 | 37210 ft | 507 kts | 68° |
| 2026-04-25 03:28 | 31.44581 | 116.26132 | 37070 ft | 505 kts | 67° |
| 2026-04-25 03:28 | 31.45839 | 116.30026 | 36795 ft | 506 kts | 68° |
| 2026-04-25 03:28 | 31.47075 | 116.33855 | 36551 ft | 507 kts | 68° |
| 2026-04-25 03:28 | 31.48327 | 116.37742 | 36395 ft | 506 kts | 68° |
| 2026-04-25 03:29 | 31.50781 | 116.45371 | 36170 ft | 502 kts | 68° |
| 2026-04-25 03:29 | 31.52027 | 116.49252 | 35978 ft | 502 kts | 68° |
| 2026-04-25 03:29 | 31.53256 | 116.53085 | 35791 ft | 503 kts | 68° |
| 2026-04-25 03:30 | 31.54486 | 116.56924 | 35674 ft | 501 kts | 68° |
| 2026-04-25 03:30 | 31.55707 | 116.60743 | 35540 ft | 500 kts | 68° |
| 2026-04-25 03:30 | 31.56919 | 116.64532 | 35382 ft | 500 kts | 68° |
| 2026-04-25 03:30 | 31.57977 | 116.67848 | 35191 ft | 501 kts | 69° |
| 2026-04-25 03:31 | 31.59211 | 116.71719 | 34795 ft | 499 kts | 69° |
| 2026-04-25 03:31 | 31.60417 | 116.75507 | 33937 ft | 506 kts | 69° |
| 2026-04-25 03:31 | 31.61666 | 116.79433 | 33023 ft | 513 kts | 69° |
| 2026-04-25 03:31 | 31.62916 | 116.83368 | 31953 ft | 518 kts | 69° |
| 2026-04-25 03:32 | 31.63709 | 116.85866 | 31310 ft | 519 kts | 70° |
| 2026-04-25 03:32 | 31.65376 | 116.91127 | 30228 ft | 513 kts | 70° |
| 2026-04-25 03:32 | 31.66606 | 116.95013 | 29690 ft | 505 kts | 69° |
| 2026-04-25 03:32 | 31.67824 | 116.98865 | 29131 ft | 497 kts | 69° |
| 2026-04-25 03:33 | 31.69011 | 117.02636 | 28562 ft | 491 kts | 69° |
| 2026-04-25 03:33 | 31.70179 | 117.06403 | 27936 ft | 485 kts | 69° |
| 2026-04-25 03:33 | 31.71319 | 117.10095 | 27334 ft | 479 kts | 69° |
| 2026-04-25 03:33 | 31.72443 | 117.13739 | 26744 ft | 473 kts | 69° |
| 2026-04-25 03:34 | 31.73554 | 117.17342 | 26149 ft | 468 kts | 69° |
| 2026-04-25 03:34 | 31.74522 | 117.20963 | 25545 ft | 463 kts | 76° |
| 2026-04-25 03:34 | 31.74986 | 117.24654 | 24947 ft | 458 kts | 85° |
| 2026-04-25 03:34 | 31.74930 | 117.28356 | 24331 ft | 454 kts | 95° |
| 2026-04-25 03:35 | 31.74352 | 117.31976 | 23733 ft | 449 kts | 105° |
| 2026-04-25 03:35 | 31.73286 | 117.35369 | 23119 ft | 445 kts | 115° |
| 2026-04-25 03:35 | 31.71783 | 117.38525 | 22501 ft | 441 kts | 122° |
| 2026-04-25 03:35 | 31.70127 | 117.41549 | 21890 ft | 437 kts | 123° |
| 2026-04-25 03:36 | 31.68454 | 117.44502 | 21281 ft | 433 kts | 123° |
| 2026-04-25 03:36 | 31.66786 | 117.47389 | 20684 ft | 429 kts | 124° |
| 2026-04-25 03:36 | 31.65105 | 117.50249 | 20095 ft | 425 kts | 124° |
| 2026-04-25 03:36 | 31.63528 | 117.53181 | 19489 ft | 421 kts | 116° |
| 2026-04-25 03:37 | 31.62721 | 117.55303 | 19082 ft | 418 kts | 109° |
| 2026-04-25 03:37 | 31.61821 | 117.59619 | 18303 ft | 411 kts | 95° |
| 2026-04-25 03:37 | 31.61741 | 117.62942 | 17702 ft | 406 kts | 85° |
| 2026-04-25 03:37 | 31.61912 | 117.65810 | 17186 ft | 403 kts | 84° |
| 2026-04-25 03:38 | 31.62155 | 117.69067 | 16592 ft | 400 kts | 84° |
| 2026-04-25 03:38 | 31.62419 | 117.72291 | 16009 ft | 397 kts | 83° |
| 2026-04-25 03:38 | 31.62695 | 117.75481 | 15426 ft | 393 kts | 83° |
| 2026-04-25 03:38 | 31.62983 | 117.78679 | 14840 ft | 390 kts | 83° |
| 2026-04-25 03:39 | 31.63271 | 117.81808 | 14267 ft | 387 kts | 83° |
| 2026-04-25 03:39 | 31.63564 | 117.84934 | 13689 ft | 384 kts | 83° |
| 2026-04-25 03:39 | 31.63856 | 117.88031 | 13114 ft | 381 kts | 83° |
| 2026-04-25 03:39 | 31.64149 | 117.91108 | 12538 ft | 378 kts | 83° |
| 2026-04-25 03:40 | 31.64437 | 117.94123 | 11969 ft | 375 kts | 83° |
| 2026-04-25 03:40 | 31.64729 | 117.97180 | 11390 ft | 372 kts | 83° |
| 2026-04-25 03:40 | 31.64921 | 117.99186 | 11015 ft | 370 kts | 83° |
| 2026-04-25 03:40 | 31.65293 | 118.03087 | 10766 ft | 351 kts | 83° |
| 2026-04-25 03:41 | 31.65561 | 118.05886 | 10683 ft | 336 kts | 83° |
| 2026-04-25 03:41 | 31.65814 | 118.08549 | 10556 ft | 323 kts | 83° |
| 2026-04-25 03:41 | 31.66060 | 118.11128 | 10409 ft | 312 kts | 83° |
| 2026-04-25 03:41 | 31.66295 | 118.13596 | 10259 ft | 302 kts | 83° |
| 2026-04-25 03:42 | 31.66523 | 118.15991 | 10119 ft | 292 kts | 83° |
| 2026-04-25 03:42 | 31.66672 | 118.18366 | 9795 ft | 289 kts | 88° |
| 2026-04-25 03:42 | 31.66692 | 118.20735 | 9402 ft | 290 kts | 89° |
| 2026-04-25 03:42 | 31.66695 | 118.23084 | 9048 ft | 288 kts | 89° |
| 2026-04-25 03:43 | 31.66700 | 118.25402 | 8733 ft | 286 kts | 89° |
| 2026-04-25 03:43 | 31.66708 | 118.27753 | 8368 ft | 285 kts | 89° |
| 2026-04-25 03:43 | 31.66715 | 118.30042 | 8157 ft | 279 kts | 89° |
| 2026-04-25 03:43 | 31.66723 | 118.32307 | 7738 ft | 281 kts | 89° |
| 2026-04-25 03:44 | 31.66730 | 118.34614 | 7429 ft | 278 kts | 89° |
| 2026-04-25 03:44 | 31.66737 | 118.36868 | 7170 ft | 274 kts | 89° |
| 2026-04-25 03:44 | 31.66743 | 118.39061 | 7027 ft | 266 kts | 89° |
| 2026-04-25 03:44 | 31.66720 | 118.41189 | 6920 ft | 256 kts | 97° |
| 2026-04-25 03:45 | 31.66232 | 118.43166 | 6770 ft | 249 kts | 111° |
| 2026-04-25 03:45 | 31.65533 | 118.45046 | 6451 ft | 250 kts | 114° |
| 2026-04-25 03:45 | 31.64799 | 118.46917 | 6088 ft | 253 kts | 114° |
| 2026-04-25 03:45 | 31.64061 | 118.48795 | 5711 ft | 254 kts | 114° |
| 2026-04-25 03:46 | 31.63329 | 118.50664 | 5402 ft | 251 kts | 114° |
| 2026-04-25 03:46 | 31.62606 | 118.52505 | 5118 ft | 247 kts | 114° |
| 2026-04-25 03:46 | 31.61891 | 118.54326 | 4836 ft | 244 kts | 114° |
| 2026-04-25 03:46 | 31.61184 | 118.56126 | 4678 ft | 235 kts | 114° |
| 2026-04-25 03:47 | 31.60533 | 118.57818 | 4615 ft | 223 kts | 108° |
| 2026-04-25 03:47 | 31.60342 | 118.58982 | 4556 ft | 218 kts | 87° |
| 2026-04-25 03:47 | 31.60862 | 118.61234 | 4409 ft | 210 kts | 64° |
| 2026-04-25 03:47 | 31.61567 | 118.62722 | 4109 ft | 206 kts | 59° |
| 2026-04-25 03:48 | 31.62309 | 118.64126 | 3859 ft | 200 kts | 58° |
| 2026-04-25 03:48 | 31.62959 | 118.65323 | 3664 ft | 195 kts | 58° |
| 2026-04-25 03:48 | 31.63680 | 118.66653 | 3437 ft | 189 kts | 59° |
| 2026-04-25 03:48 | 31.64377 | 118.67939 | 3212 ft | 186 kts | 59° |
| 2026-04-25 03:49 | 31.65075 | 118.69224 | 2985 ft | 184 kts | 59° |
| 2026-04-25 03:49 | 31.65743 | 118.70461 | 2762 ft | 184 kts | 59° |
| 2026-04-25 03:49 | 31.66418 | 118.71710 | 2534 ft | 183 kts | 59° |
| 2026-04-25 03:49 | 31.67101 | 118.72975 | 2301 ft | 183 kts | 59° |
| 2026-04-25 03:50 | 31.67772 | 118.74219 | 2063 ft | 177 kts | 59° |
| 2026-04-25 03:50 | 31.68429 | 118.75439 | 1839 ft | 172 kts | 59° |
| 2026-04-25 03:50 | 31.69059 | 118.76610 | 1624 ft | 161 kts | 59° |
| 2026-04-25 03:50 | 31.69631 | 118.77673 | 1422 ft | 151 kts | 60° |
| 2026-04-25 03:51 | 31.70186 | 118.78704 | 1228 ft | 147 kts | 59° |
| 2026-04-25 03:51 | 31.70732 | 118.79720 | 1031 ft | 146 kts | 59° |
| 2026-04-25 03:51 | 31.71273 | 118.80727 | 837 ft | 146 kts | 59° |
| 2026-04-25 03:51 | 31.71812 | 118.81728 | 641 ft | 146 kts | 59° |
| 2026-04-25 03:52 | 31.72359 | 118.82745 | 447 ft | 145 kts | 59° |
| 2026-04-25 03:52 | 31.72898 | 118.83738 | 246 ft | 143 kts | 59° |
| 2026-04-25 03:52 | 31.73428 | 118.84729 | 75 ft | 142 kts | 59° |
| 2026-04-25 03:52 | 31.73904 | 118.85619 | 56 ft | 109 kts | 59° |
| 2026-04-25 03:53 | 31.74229 | 118.86224 | 56 ft | 65 kts | 58° |
| 2026-04-25 03:53 | 31.74365 | 118.86578 | 56 ft | 37 kts | 84° |
| 2026-04-25 03:53 | 31.74345 | 118.86760 | 56 ft | 12 kts | 160° |
| 2026-04-25 03:53 | 31.74270 | 118.86687 | 56 ft | 21 kts | 236° |
| 2026-04-25 03:54 | 31.74171 | 118.86506 | 56 ft | 27 kts | 238° |
| 2026-04-25 03:54 | 31.74079 | 118.86334 | 56 ft | 23 kts | 239° |
| 2026-04-25 03:54 | 31.73992 | 118.86171 | 56 ft | 22 kts | 237° |
| 2026-04-25 03:54 | 31.73912 | 118.86021 | 56 ft | 21 kts | 238° |
| 2026-04-25 03:55 | 31.73835 | 118.85877 | 56 ft | 20 kts | 237° |
| 2026-04-25 03:55 | 31.73746 | 118.85784 | 56 ft | 16 kts | 161° |
| 2026-04-25 03:55 | 31.73651 | 118.85849 | 56 ft | 15 kts | 147° |
| 2026-04-25 03:55 | 31.73563 | 118.85915 | 56 ft | 14 kts | 148° |
| 2026-04-25 03:56 | 31.73462 | 118.85989 | 56 ft | 20 kts | 148° |
| 2026-04-25 03:56 | 31.73319 | 118.86092 | 56 ft | 27 kts | 148° |
| 2026-04-25 03:56 | 31.73151 | 118.86215 | 56 ft | 21 kts | 148° |
| 2026-04-25 03:56 | 31.73030 | 118.86303 | 56 ft | 19 kts | 148° |
| 2026-04-25 03:57 | 31.72918 | 118.86385 | 56 ft | 18 kts | 147° |
| 2026-04-25 03:57 | 31.72816 | 118.86461 | 56 ft | 16 kts | 148° |
| 2026-04-25 03:57 | 31.72719 | 118.86532 | 56 ft | 15 kts | 142° |
| 2026-04-25 03:57 | 31.72720 | 118.86633 | 56 ft | 13 kts | 60° |
| 2026-04-25 03:58 | 31.72767 | 118.86723 | 56 ft | 12 kts | 58° |
| 2026-04-25 03:58 | 31.72811 | 118.86806 | 56 ft | 11 kts | 58° |
| 2026-04-25 03:58 | 31.72840 | 118.86860 | 56 ft | 11 kts | 58° |
| 2026-04-25 03:58 | 31.72895 | 118.86962 | 56 ft | 10 kts | 58° |
| 2026-04-25 03:59 | 31.72935 | 118.87035 | 56 ft | 10 kts | 57° |
| 2026-04-25 03:59 | 31.72973 | 118.87106 | 56 ft | 10 kts | 58° |
| 2026-04-25 03:59 | 31.72997 | 118.87151 | 56 ft | 9 kts | 58° |
| 2026-04-25 03:59 | 31.73057 | 118.87188 | 56 ft | 8 kts | 335° |
| 2026-04-25 04:00 | 31.73092 | 118.87163 | 56 ft | 0 kts | 325° |
| 2026-04-25 04:00 | 31.73095 | 118.87161 | 56 ft | 0 kts | 325° |
| 2026-04-25 04:00 | 31.73097 | 118.87160 | 56 ft | 0 kts | 325° |